Terminal Aerodrome Forecast
Issued by NWS

Home | Current Version | Previous Version | Text Only | Print | Product List | Glossary On
Versions: 1 2 3 4 5 6 7 8 9 10 11 12 13 14 15 16 17 18 19 20 21 22 23 24 25 26 27
000
FTUS42 KRAH 232340
TAFRWI
TAF
KRWI 232340Z 2400/2424 VRB02KT P6SM SCT120
     FM240700 VRB04KT 3SM BR BKN008
      TEMPO 2410/2414 1/4SM FG BKN003
     FM241400 22007KT P6SM BKN003
     FM241600 22009KT P6SM SCT040 BKN090=

USA.gov is the U.S. government's official web portal to all federal, state and local government web resources and services.